createdAt,value
2018-08-06T00:01:25.423Z,47.12
2018-08-06T00:03:54.432Z,48.33
2018-08-06T00:06:22.066Z,47.69
2018-08-06T00:08:49.903Z,48.15
2018-08-06T00:11:18.062Z,48.48
2018-08-06T00:13:45.667Z,48.58
2018-08-06T00:16:13.274Z,48.11
2018-08-06T00:18:42.191Z,48.69
2018-08-06T00:21:09.759Z,48.05
2018-08-06T00:23:37.400Z,48.64
2018-08-06T00:26:05.377Z,48.45
2018-08-06T00:28:33.015Z,47.66
2018-08-06T00:31:00.625Z,48.04
2018-08-06T00:33:28.279Z,48.06
2018-08-06T00:35:56.101Z,48.21
2018-08-06T00:38:23.742Z,47.98
2018-08-06T00:40:52.019Z,48.36
2018-08-06T00:43:19.858Z,48.39
2018-08-06T00:45:47.430Z,47.91
2018-08-06T00:48:15.043Z,48.74
2018-08-06T00:50:42.578Z,48.67
2018-08-06T00:53:10.420Z,49.02
2018-08-06T00:55:38.075Z,49.05
2018-08-06T00:58:05.702Z,48.36
2018-08-06T01:00:33.260Z,48.30
2018-08-06T01:03:01.952Z,48.66
2018-08-06T01:05:29.621Z,48.96
2018-08-06T01:07:57.247Z,48.78
2018-08-06T01:10:24.877Z,48.85
2018-08-06T01:12:52.794Z,48.51
2018-08-06T01:15:21.698Z,49.01
2018-08-06T01:17:49.326Z,48.73
2018-08-06T01:20:16.967Z,49.07
2018-08-06T01:22:45.539Z,48.71
2018-08-06T01:25:13.594Z,48.77
2018-08-06T01:27:41.182Z,49.12
2018-08-06T01:30:08.750Z,49.69
2018-08-06T01:32:37.004Z,48.96
2018-08-06T01:35:04.566Z,49.40
2018-08-06T01:37:32.174Z,49.50
2018-08-06T01:39:59.799Z,49.53
2018-08-06T01:42:27.678Z,49.75
2018-08-06T01:44:55.311Z,50.49
2018-08-06T01:47:23.755Z,50.70
2018-08-06T01:49:51.693Z,50.55
2018-08-06T01:52:19.214Z,50.70
2018-08-06T01:54:46.859Z,50.65
2018-08-06T01:57:14.666Z,51.16
2018-08-06T01:59:42.307Z,51.60
2018-08-06T02:02:09.999Z,51.89
2018-08-06T02:04:37.654Z,51.49
2018-08-06T02:07:05.499Z,51.98
2018-08-06T02:09:33.076Z,51.86
2018-08-06T02:12:00.641Z,51.33
2018-08-06T02:14:28.231Z,51.67
2018-08-06T02:16:56.271Z,51.55
2018-08-06T02:19:23.956Z,51.76
2018-08-06T02:21:51.619Z,51.03
2018-08-06T02:24:19.249Z,51.06
2018-08-06T02:26:47.207Z,51.35
2018-08-06T02:29:15.820Z,51.65
2018-08-06T02:31:43.460Z,51.76
2018-08-06T02:34:11.277Z,52.02
2018-08-06T02:36:38.855Z,51.75
2018-08-06T02:39:06.423Z,51.46
2018-08-06T02:41:34.079Z,51.81
2018-08-06T02:44:01.930Z,51.58
2018-08-06T02:46:29.579Z,52.21
2018-08-06T02:48:57.167Z,51.67
2018-08-06T02:51:24.803Z,51.68
2018-08-06T02:53:52.716Z,51.74
2018-08-06T02:56:20.266Z,51.74
2018-08-06T02:58:47.806Z,51.71
2018-08-06T03:01:15.344Z,52.21
2018-08-06T03:03:43.277Z,52.20
2018-08-06T03:06:10.833Z,51.63
2018-08-06T03:08:38.418Z,51.80
2018-08-06T03:11:06.236Z,51.42
2018-08-06T03:13:33.859Z,51.79
2018-08-06T03:16:01.447Z,51.64
2018-08-06T03:18:29.052Z,51.44
2018-08-06T03:20:56.602Z,52.32
2018-08-06T03:23:24.205Z,52.28
2018-08-06T03:25:52.166Z,52.48
2018-08-06T03:28:19.794Z,51.87
2018-08-06T03:30:48.116Z,52.31
2018-08-06T03:33:16.295Z,52.24
2018-08-06T03:35:44.193Z,52.12
2018-08-06T03:38:11.759Z,52.53
2018-08-06T03:40:39.369Z,52.86
2018-08-06T03:43:06.887Z,52.45
2018-08-06T03:45:34.873Z,52.73
2018-08-06T03:48:02.448Z,52.63
2018-08-06T03:50:30.092Z,53.04
2018-08-06T03:52:57.672Z,52.98
2018-08-06T03:55:25.658Z,53.39
2018-08-06T03:57:53.180Z,53.54
2018-08-06T04:00:20.807Z,53.14
2018-08-06T04:02:48.427Z,52.85
2018-08-06T04:05:16.833Z,53.07
2018-08-06T04:07:44.520Z,52.99
2018-08-06T04:10:12.388Z,53.10
2018-08-06T04:12:40.293Z,52.86
2018-08-06T04:15:08.590Z,53.15
2018-08-06T04:17:36.166Z,53.10
2018-08-06T04:20:05.072Z,53.54
2018-08-06T04:22:32.708Z,53.16
2018-08-06T04:25:00.291Z,53.12
2018-08-06T04:27:27.876Z,52.89
2018-08-06T04:29:55.779Z,52.92
2018-08-06T04:32:23.393Z,53.00
2018-08-06T04:34:50.923Z,53.04
2018-08-06T04:37:18.807Z,52.73
2018-08-06T04:39:46.426Z,53.29
2018-08-06T04:42:14.037Z,52.71
2018-08-06T04:44:41.656Z,53.22
2018-08-06T04:47:09.650Z,53.08
2018-08-06T04:49:37.283Z,52.14
2018-08-06T04:52:04.883Z,51.97
2018-08-06T04:54:32.743Z,52.02
2018-08-06T04:57:00.360Z,52.05
2018-08-06T05:02:11.278Z,51.04
2018-08-06T05:04:39.498Z,51.43
2018-08-06T05:07:08.507Z,51.07
2018-08-06T05:09:37.265Z,50.98
2018-08-06T05:12:04.933Z,50.92
2018-08-06T05:14:32.458Z,50.37
2018-08-06T05:17:00.929Z,50.73
2018-08-06T05:19:28.506Z,50.55
2018-08-06T05:21:56.100Z,49.84
2018-08-06T05:24:23.963Z,50.38
2018-08-06T05:26:51.575Z,49.59
2018-08-06T05:29:19.186Z,49.99
2018-08-06T05:31:47.494Z,50.00
2018-08-06T05:34:15.132Z,49.56
2018-08-06T05:36:42.763Z,49.00
2018-08-06T05:39:10.688Z,48.69
2018-08-06T05:41:38.310Z,48.88
2018-08-06T05:44:08.823Z,48.74
2018-08-06T05:46:36.714Z,48.60
2018-08-06T05:49:04.278Z,48.47
2018-08-06T05:51:31.886Z,47.38
2018-08-06T05:53:59.792Z,47.34
2018-08-06T05:56:27.379Z,47.36
2018-08-06T05:58:54.942Z,47.43
2018-08-06T06:01:23.308Z,47.34
2018-08-06T06:03:50.918Z,47.21
2018-08-06T06:06:18.510Z,46.70
2018-08-06T06:08:46.355Z,46.35
2018-08-06T06:11:14.001Z,46.77
2018-08-06T06:13:41.595Z,45.92
2018-08-06T06:16:09.634Z,46.05
2018-08-06T06:18:38.152Z,45.78
2018-08-06T06:21:05.721Z,45.01
2018-08-06T06:23:33.526Z,44.97
2018-08-06T06:26:01.684Z,44.80
2018-08-06T06:28:31.607Z,45.22
2018-08-06T06:30:59.608Z,44.41
2018-08-06T06:33:27.255Z,45.01
2018-08-06T06:35:55.574Z,44.93
2018-08-06T06:38:23.415Z,44.37
2018-08-06T06:40:51.034Z,44.18
2018-08-06T06:43:18.594Z,44.52
2018-08-06T06:45:46.419Z,43.37
2018-08-06T06:48:14.765Z,43.64
2018-08-06T06:50:42.350Z,43.90
2018-08-06T06:53:10.206Z,43.00
2018-08-06T06:55:38.818Z,42.81
2018-08-06T06:58:06.605Z,43.61
2018-08-06T07:00:34.509Z,42.82
2018-08-06T07:03:02.153Z,43.11
2018-08-06T07:05:29.810Z,42.83
2018-08-06T07:07:57.626Z,42.78
2018-08-06T07:10:25.243Z,41.79
2018-08-06T07:12:53.392Z,42.40
2018-08-06T07:15:22.147Z,41.28
2018-08-06T07:17:50.632Z,41.63
2018-08-06T07:20:18.471Z,40.80
2018-08-06T07:22:46.327Z,41.12
2018-08-06T07:25:13.981Z,41.24
2018-08-06T07:27:42.703Z,40.49
2018-08-06T07:30:11.506Z,40.88
2018-08-06T07:32:39.476Z,40.51
2018-08-06T07:35:07.326Z,40.46
2018-08-06T07:37:35.235Z,40.44
2018-08-06T07:40:02.842Z,40.44
2018-08-06T07:42:30.497Z,39.52
2018-08-06T07:44:58.356Z,39.37
2018-08-06T07:47:25.928Z,39.90
2018-08-06T07:49:53.640Z,39.86
2018-08-06T07:52:21.622Z,39.00
2018-08-06T07:54:49.266Z,39.63
2018-08-06T07:57:16.928Z,38.95
2018-08-06T07:59:44.876Z,39.48
2018-08-06T08:02:12.558Z,38.71
2018-08-06T08:04:40.186Z,39.31
2018-08-06T08:07:08.427Z,38.54
2018-08-06T08:09:36.720Z,38.79
2018-08-06T08:12:04.281Z,38.48
2018-08-06T08:14:32.110Z,38.09
2018-08-06T08:16:59.659Z,38.66
2018-08-06T08:19:27.653Z,37.92
2018-08-06T08:21:55.510Z,37.88
2018-08-06T08:24:23.150Z,37.94
2018-08-06T08:26:51.298Z,37.43
2018-08-06T08:29:19.956Z,37.89
2018-08-06T08:31:48.197Z,37.37
2018-08-06T08:34:15.836Z,36.80
2018-08-06T08:36:43.730Z,36.98
2018-08-06T08:39:12.511Z,36.53
2018-08-06T08:41:40.044Z,37.10
2018-08-06T08:44:08.940Z,37.04
2018-08-06T08:46:36.564Z,36.36
2018-08-06T08:49:06.061Z,36.89
2018-08-06T08:51:33.918Z,36.75
2018-08-06T08:54:02.522Z,36.49
2018-08-06T08:56:30.065Z,35.81
2018-08-06T08:58:58.642Z,35.63
2018-08-06T09:01:26.323Z,35.85
2018-08-06T09:03:54.027Z,36.08
2018-08-06T09:06:21.874Z,36.01
2018-08-06T09:08:49.461Z,35.52
2018-08-06T09:11:17.187Z,34.83
2018-08-06T09:13:45.311Z,34.69
2018-08-06T09:16:13.511Z,35.33
2018-08-06T09:18:41.107Z,34.97
2018-08-06T09:21:08.696Z,34.08
2018-08-06T09:23:36.600Z,34.56
2018-08-06T09:26:04.486Z,34.78
2018-08-06T09:28:32.011Z,34.00
2018-08-06T09:30:59.621Z,33.77
2018-08-06T09:33:27.446Z,34.28
2018-08-06T09:35:55.100Z,33.21
2018-08-06T09:38:22.703Z,34.03
2018-08-06T09:40:50.613Z,33.51
2018-08-06T09:43:18.446Z,32.24
2018-08-06T09:45:46.076Z,31.79
2018-08-06T09:48:13.927Z,31.57
2018-08-06T09:50:41.475Z,31.71
2018-08-06T09:53:09.901Z,30.81
2018-08-06T09:55:38.540Z,30.22
2018-08-06T09:58:06.959Z,30.25
2018-08-06T10:00:40.639Z,30.44
2018-08-06T10:03:08.550Z,30.25
2018-08-06T10:05:36.084Z,29.86
2018-08-06T10:08:03.767Z,30.21
2018-08-06T10:10:33.022Z,28.87
2018-08-06T10:13:00.643Z,28.90
2018-08-06T10:15:28.240Z,28.04
2018-08-06T10:17:56.579Z,27.92
2018-08-06T10:20:25.371Z,26.90
2018-08-06T10:22:54.050Z,26.95
2018-08-06T10:25:22.342Z,26.74
2018-08-06T10:27:50.014Z,26.67
2018-08-06T10:30:21.821Z,25.40
2018-08-06T10:32:51.188Z,25.65
2018-08-06T10:35:20.726Z,26.32
2018-08-06T10:37:49.588Z,26.41
2018-08-06T10:40:21.669Z,25.97
2018-08-06T10:42:50.452Z,24.82
2018-08-06T10:45:20.237Z,24.75
2018-08-06T10:47:50.631Z,25.28
2018-08-06T10:50:20.807Z,24.38
2018-08-06T10:52:48.404Z,23.40
2018-08-06T10:55:16.278Z,24.27
2018-08-06T10:57:44.051Z,23.13
2018-08-06T11:00:12.767Z,23.50
2018-08-06T11:02:40.668Z,23.65
2018-08-06T11:05:10.037Z,23.23
2018-08-06T11:07:37.792Z,22.64
2018-08-06T11:10:11.941Z,23.50
2018-08-06T11:12:39.958Z,23.05
2018-08-06T11:15:08.238Z,21.97
2018-08-06T11:17:36.294Z,21.82
2018-08-06T11:20:03.886Z,21.74
2018-08-06T11:22:31.548Z,21.42
2018-08-06T11:24:59.330Z,21.99
2018-08-06T11:27:27.675Z,21.84
2018-08-06T11:29:56.204Z,21.84
2018-08-06T11:32:24.679Z,21.28
2018-08-06T11:34:52.295Z,21.64
2018-08-06T11:37:19.879Z,20.90
2018-08-06T11:39:48.354Z,20.55
2018-08-06T11:42:16.788Z,20.56
2018-08-06T11:44:44.433Z,20.10
2018-08-06T11:47:12.323Z,19.72
2018-08-06T11:49:40.497Z,20.56
2018-08-06T11:52:10.519Z,19.84
2018-08-06T11:54:39.599Z,19.89
2018-08-06T11:57:07.171Z,19.92
2018-08-06T11:59:36.439Z,19.61
2018-08-06T12:02:05.806Z,20.32
2018-08-06T12:04:33.601Z,19.91
2018-08-06T12:07:03.331Z,19.67
2018-08-06T12:09:31.500Z,20.34
2018-08-06T12:12:01.315Z,20.07
2018-08-06T12:14:28.896Z,19.73
2018-08-06T12:16:57.651Z,19.16
2018-08-06T12:19:26.259Z,18.92
2018-08-06T12:21:55.687Z,18.58
2018-08-06T12:24:23.554Z,18.83
2018-08-06T12:26:52.642Z,19.19
2018-08-06T12:29:21.237Z,18.84
2018-08-06T12:31:50.223Z,18.59
2018-08-06T12:34:17.778Z,18.52
2018-08-06T12:36:46.514Z,18.31
2018-08-06T12:39:15.320Z,18.62
2018-08-06T12:41:43.568Z,18.20
2018-08-06T12:44:13.017Z,18.50
2018-08-06T12:46:41.346Z,18.98
2018-08-06T12:49:09.455Z,18.04
2018-08-06T12:51:37.764Z,17.97
2018-08-06T12:54:06.632Z,17.84
2018-08-06T12:56:34.546Z,18.38
2018-08-06T12:59:03.421Z,18.28
2018-08-06T13:01:32.435Z,17.50
2018-08-06T13:04:00.231Z,17.91
2018-08-06T13:06:28.423Z,16.93
2018-08-06T13:08:56.552Z,17.15
2018-08-06T13:11:24.813Z,17.19
2018-08-06T13:13:52.523Z,17.12
2018-08-06T13:16:21.311Z,16.87
2018-08-06T13:18:49.746Z,16.90
2018-08-06T13:21:18.209Z,16.78
2018-08-06T13:23:48.124Z,16.53
2018-08-06T13:26:16.691Z,16.74
2018-08-06T13:28:44.847Z,16.50
2018-08-06T13:31:12.771Z,15.97
2018-08-06T13:33:40.365Z,16.09
2018-08-06T13:36:08.513Z,15.75
2018-08-06T13:38:36.379Z,15.59
2018-08-06T13:41:04.622Z,15.66
2018-08-06T13:43:33.210Z,15.55
2018-08-06T13:46:01.108Z,15.90
2018-08-06T13:48:29.648Z,15.29
2018-08-06T13:50:59.306Z,15.44
2018-08-06T13:53:27.321Z,15.38
2018-08-06T13:55:54.874Z,15.21
2018-08-06T13:58:22.483Z,15.31
2018-08-06T14:00:50.404Z,15.48
2018-08-06T14:03:18.027Z,15.17
2018-08-06T14:05:45.580Z,15.08
2018-08-06T14:08:13.412Z,14.92
2018-08-06T14:10:40.989Z,14.50
2018-08-06T14:13:08.607Z,14.05
2018-08-06T14:15:36.676Z,14.39
2018-08-06T14:18:06.314Z,14.42
2018-08-06T14:20:35.324Z,14.48
2018-08-06T14:23:03.392Z,14.46
2018-08-06T14:25:31.683Z,14.65
2018-08-06T14:27:59.559Z,14.62
2018-08-06T14:30:27.366Z,15.20
2018-08-06T14:32:54.886Z,14.92
2018-08-06T14:35:22.531Z,14.61
2018-08-06T14:37:52.042Z,14.89
2018-08-06T14:40:20.237Z,14.92
2018-08-06T14:42:48.102Z,14.95
2018-08-06T14:45:16.528Z,14.54
2018-08-06T14:47:44.178Z,14.70
2018-08-06T14:50:13.304Z,15.06
2018-08-06T14:52:40.879Z,15.14
2018-08-06T14:55:08.540Z,14.80
2018-08-06T14:57:38.170Z,15.09
2018-08-06T15:00:05.742Z,14.91
2018-08-06T15:02:33.358Z,14.56
2018-08-06T15:05:01.261Z,14.74
2018-08-06T15:07:28.886Z,14.80
2018-08-06T15:09:56.535Z,14.73
2018-08-06T15:12:24.753Z,14.48
2018-08-06T15:14:52.342Z,14.39
2018-08-06T15:17:19.968Z,14.59
2018-08-06T15:19:50.107Z,14.11
2018-08-06T15:22:17.727Z,13.88
2018-08-06T15:24:45.250Z,13.84
2018-08-06T15:27:13.862Z,14.27
2018-08-06T15:29:41.453Z,14.10
2018-08-06T15:32:10.432Z,14.05
2018-08-06T15:34:39.582Z,14.75
2018-08-06T15:37:07.343Z,14.68
2018-08-06T15:39:35.695Z,14.53
2018-08-06T15:42:04.110Z,14.84
2018-08-06T15:44:31.974Z,14.70
2018-08-06T15:46:59.610Z,15.11
2018-08-06T15:49:29.279Z,15.00
2018-08-06T15:51:58.502Z,14.67
2018-08-06T15:54:28.727Z,14.26
2018-08-06T15:57:02.447Z,14.29
2018-08-06T15:59:31.631Z,14.47
2018-08-06T16:01:59.154Z,13.94
2018-08-06T16:04:27.918Z,14.36
2018-08-06T16:06:56.614Z,14.24
2018-08-06T16:09:25.273Z,14.73
2018-08-06T16:11:53.158Z,14.41
2018-08-06T16:14:20.758Z,14.88
2018-08-06T16:16:48.370Z,14.96
2018-08-06T16:19:16.239Z,14.49
2018-08-06T16:21:46.666Z,14.84
2018-08-06T16:24:14.218Z,15.09
2018-08-06T16:26:42.082Z,14.21
2018-08-06T16:29:10.638Z,14.73
2018-08-06T16:31:38.204Z,14.92
2018-08-06T16:34:06.047Z,15.50
2018-08-06T16:36:33.611Z,15.35
2018-08-06T16:39:01.369Z,16.33
2018-08-06T16:41:30.094Z,17.03
2018-08-06T16:43:57.728Z,17.06
2018-08-06T16:46:25.675Z,18.40
2018-08-06T16:48:53.564Z,19.05
2018-08-06T16:51:21.376Z,19.59
2018-08-06T16:53:49.739Z,20.40
2018-08-06T16:56:17.713Z,19.92
2018-08-06T16:58:45.242Z,20.69
2018-08-06T17:01:12.852Z,19.70
2018-08-06T17:03:41.427Z,21.25
2018-08-06T17:06:08.982Z,21.37
2018-08-06T17:08:37.433Z,21.30
2018-08-06T17:11:06.776Z,21.95
2018-08-06T17:13:38.119Z,20.79
2018-08-06T17:16:05.643Z,22.06
2018-08-06T17:18:33.527Z,21.17
2018-08-06T17:21:01.048Z,21.37
2018-08-06T17:23:29.611Z,22.21
2018-08-06T17:25:57.492Z,22.45
2018-08-06T17:28:26.688Z,21.63
2018-08-06T17:30:54.214Z,21.67
2018-08-06T17:33:23.694Z,22.27
2018-08-06T17:35:53.623Z,21.57
2018-08-06T17:38:22.158Z,21.74
2018-08-06T17:40:50.749Z,22.52
2018-08-06T17:43:18.395Z,22.64
2018-08-06T17:45:46.056Z,21.83
2018-08-06T17:48:13.959Z,22.01
2018-08-06T17:50:42.067Z,21.83
2018-08-06T17:53:10.571Z,22.36
2018-08-06T17:55:40.608Z,22.49
2018-08-06T17:58:08.518Z,22.01
2018-08-06T18:00:36.677Z,22.52
2018-08-06T18:03:05.462Z,22.01
2018-08-06T18:05:34.252Z,22.15
2018-08-06T18:08:03.123Z,22.49
2018-08-06T18:10:31.738Z,22.98
2018-08-06T18:12:59.375Z,23.06
2018-08-06T18:15:27.959Z,23.21
2018-08-06T18:17:59.508Z,23.41
2018-08-06T18:20:27.127Z,22.58
2018-08-06T18:22:57.154Z,22.91
2018-08-06T18:25:25.255Z,23.00
2018-08-06T18:27:53.475Z,23.64
2018-08-06T18:30:21.450Z,23.87
2018-08-06T18:32:49.268Z,23.89
2018-08-06T18:35:17.826Z,23.59
2018-08-06T18:37:45.438Z,24.04
2018-08-06T18:40:14.135Z,24.26
2018-08-06T18:42:41.767Z,24.38
2018-08-06T18:45:10.901Z,23.89
2018-08-06T18:47:42.486Z,23.78
2018-08-06T18:50:11.206Z,23.92
2018-08-06T18:52:40.479Z,24.14
2018-08-06T18:55:10.690Z,25.04
2018-08-06T18:57:38.526Z,24.80
2018-08-06T19:00:07.926Z,24.49
2018-08-06T19:02:39.764Z,24.87
2018-08-06T19:05:08.200Z,25.13
2018-08-06T19:07:36.419Z,25.63
2018-08-06T19:10:05.321Z,25.01
2018-08-06T19:12:39.338Z,25.67
2018-08-06T19:15:07.562Z,25.93
2018-08-06T19:17:39.465Z,26.21
2018-08-06T19:20:07.552Z,26.39
2018-08-06T19:22:36.089Z,26.59
2018-08-06T19:25:09.275Z,26.09
2018-08-06T19:27:38.072Z,26.00
2018-08-06T19:30:08.665Z,26.24
2018-08-06T19:32:36.536Z,27.29
2018-08-06T19:35:04.075Z,27.18
2018-08-06T19:37:36.787Z,26.95
2018-08-06T19:40:06.436Z,27.43
2018-08-06T19:42:38.981Z,27.79
2018-08-06T19:45:06.559Z,26.79
2018-08-06T19:47:35.687Z,27.53
2018-08-06T19:50:08.271Z,27.81
2018-08-06T19:52:35.910Z,27.75
2018-08-06T19:55:09.455Z,27.33
2018-08-06T19:57:36.997Z,27.59
2018-08-06T20:00:04.855Z,27.81
2018-08-06T20:02:33.367Z,27.83
2018-08-06T20:05:02.606Z,27.57
2018-08-06T20:07:31.416Z,28.09
2018-08-06T20:09:58.969Z,28.59
2018-08-06T20:12:26.547Z,28.85
2018-08-06T20:14:54.468Z,28.56
2018-08-06T20:17:22.087Z,29.02
2018-08-06T20:19:49.878Z,28.67
2018-08-06T20:24:52.609Z,28.79
2018-08-06T20:27:21.304Z,28.85
2018-08-06T20:29:49.279Z,29.03
2018-08-06T20:32:16.917Z,29.46
2018-08-06T20:34:44.510Z,28.99
2018-08-06T20:37:12.344Z,29.04
2018-08-06T20:39:41.402Z,29.26
2018-08-06T20:42:09.047Z,29.79
2018-08-06T20:44:37.022Z,30.14
2018-08-06T20:47:04.588Z,29.99
2018-08-06T20:49:32.206Z,29.71
2018-08-06T20:52:00.778Z,30.08
2018-08-06T20:54:29.235Z,29.99
2018-08-06T20:56:56.900Z,30.19
2018-08-06T20:59:28.394Z,30.74
2018-08-06T21:01:55.991Z,30.37
2018-08-06T21:04:23.675Z,30.82
2018-08-06T21:06:51.539Z,30.79
2018-08-06T21:09:19.059Z,31.38
2018-08-06T21:11:46.591Z,31.37
2018-08-06T21:14:14.567Z,31.85
2018-08-06T21:16:43.566Z,31.52
2018-08-06T21:19:11.287Z,32.11
2018-08-06T21:21:40.586Z,31.51
2018-08-06T21:24:09.723Z,31.47
2018-08-06T21:26:38.729Z,31.29
2018-08-06T21:29:06.603Z,31.59
2018-08-06T21:31:35.203Z,32.18
2018-08-06T21:34:02.729Z,31.83
2018-08-06T21:36:30.555Z,32.10
2018-08-06T21:38:58.170Z,32.55
2018-08-06T21:41:25.750Z,32.95
2018-08-06T21:43:54.898Z,32.42
2018-08-06T21:46:22.539Z,32.43
2018-08-06T21:48:50.101Z,32.93
2018-08-06T21:51:18.158Z,33.28
2018-08-06T21:53:45.746Z,32.46
2018-08-06T21:56:14.156Z,32.62
2018-08-06T21:58:43.651Z,33.34
2018-08-06T22:01:11.284Z,32.79
2018-08-06T22:03:38.805Z,32.98
2018-08-06T22:06:07.656Z,33.10
2018-08-06T22:08:35.221Z,33.24
2018-08-06T22:11:02.868Z,32.73
2018-08-06T22:13:30.750Z,32.94
2018-08-06T22:15:58.306Z,32.76
2018-08-06T22:18:25.873Z,33.45
2018-08-06T22:20:53.422Z,33.45
2018-08-06T22:23:21.439Z,33.45
2018-08-06T22:25:50.696Z,32.90
2018-08-06T22:28:18.352Z,32.97
2018-08-06T22:30:45.946Z,33.88
2018-08-06T22:33:13.814Z,33.28
2018-08-06T22:35:41.867Z,33.86
2018-08-06T22:38:09.500Z,33.94
2018-08-06T22:40:37.204Z,34.20
2018-08-06T22:43:05.840Z,33.63
2018-08-06T22:45:33.366Z,33.87
2018-08-06T22:48:01.676Z,34.24
2018-08-06T22:50:29.260Z,34.70
2018-08-06T22:52:57.328Z,34.87
2018-08-06T22:55:26.206Z,34.32
2018-08-06T22:57:53.768Z,34.12
2018-08-06T23:00:21.428Z,33.84
2018-08-06T23:02:49.307Z,34.63
2018-08-06T23:05:18.023Z,34.70
2018-08-06T23:07:45.650Z,34.47
2018-08-06T23:10:13.502Z,34.93
2018-08-06T23:12:41.389Z,34.30
2018-08-06T23:15:09.057Z,35.09
2018-08-06T23:17:36.690Z,35.11
2018-08-06T23:20:05.995Z,35.30
2018-08-06T23:22:35.102Z,34.46
2018-08-06T23:25:03.411Z,35.18
2018-08-06T23:27:31.039Z,34.62
2018-08-06T23:29:58.687Z,35.22
2018-08-06T23:32:26.629Z,34.64
2018-08-06T23:34:54.275Z,34.70
2018-08-06T23:37:21.868Z,35.46
2018-08-06T23:39:49.459Z,36.03
2018-08-06T23:42:17.349Z,35.19
2018-08-06T23:44:45.031Z,35.59
2018-08-06T23:47:12.641Z,35.49
2018-08-06T23:49:40.728Z,35.42
2018-08-06T23:52:09.140Z,36.13
2018-08-06T23:54:36.763Z,35.85
2018-08-06T23:57:05.292Z,35.67
2018-08-06T23:59:33.271Z,35.76
